AHO weather

Alghero-Fertilia Airport
Alghero, Sardinia, Italy

Public forecast

Using degrees Celsius for public forecast. Weather courtesy of forecast.io.

Current aviation weather report (METAR) for Alghero-Fertilia Airport

Retrieved 2020/01/26 17:20 UTC (7 minutes ago):

LIEA 261720Z VRB02KT CAVOK 12/09 Q1020

Aviation forecast (TAF) for Alghero-Fertilia Airport

Retrieved 2020/01/26 12:00 UTC (5 hours ago):

TAF LIEA 261100Z 2612/2712 VRB06KT CAVOK TEMPO 2702/2707 1200 BCFG BECMG 2708/2710 21010KT